This is the latest recevied weather packets stored in our database for station/object N0THY. If no packets are shown the sender has not sent any weather packets the latest 10 day(s).
| Time | Temp. | Humidity | Pressure | Rain* | Wind** | Luminosity | Snow |
|---|---|---|---|---|---|---|---|
| 1777626586 | 2.22° C | 76% | 1018.8 hPa | 0 mm | - | - | - |
| 1777625683 | 2.78° C | 75% | 1018.9 hPa | 0 mm | - | - | - |
| 1777624780 | 2.78° C | 75% | 1018.8 hPa | 0 mm | - | - | - |
| 1777623877 | 2.78° C | 75% | 1018.9 hPa | 0 mm | - | - | - |
| 1777622974 | 2.78° C | 73% | 1018.9 hPa | 0 mm | - | - | - |
| 1777622071 | 3.33° C | 73% | 1018.9 hPa | 0 mm | - | - | - |
| 1777621168 | 3.33° C | 73% | 1018.9 hPa | 0 mm | - | - | - |
| 1777620265 | 3.89° C | 71% | 1018.9 hPa | 0 mm | - | - | - |
| 1777619362 | 3.89° C | 70% | 1018.9 hPa | 0 mm | - | - | - |
| 1777618459 | 3.89° C | 70% | 1018.8 hPa | 0 mm | - | - | - |
| 1777617556 | 4.44° C | 70% | 1018.8 hPa | 0 mm | - | - | - |
| 1777616654 | 4.44° C | 70% | 1018.7 hPa | 0 mm | - | - | - |
| 1777615751 | 5° C | 68% | 1018.6 hPa | 0 mm | - | - | - |
| 1777614848 | 5.56° C | 68% | 1018.6 hPa | 0 mm | - | - | - |
| 1777613945 | 5.56° C | 68% | 1018.6 hPa | 0 mm | - | - | - |
| 1777613042 | 6.11° C | 67% | 1018.6 hPa | 0 mm | - | - | - |
| 1777612139 | 6.11° C | 68% | 1018.6 hPa | 0 mm | - | - | - |
| 1777611236 | 6.11° C | 70% | 1018.6 hPa | 0 mm | - | - | - |
| 1777610333 | 5.56° C | 69% | 1018.5 hPa | 0 mm | - | - | - |
| 1777609430 | 5° C | 72% | 1018.5 hPa | 0 mm | - | - | - |
| 1777608527 | 5.56° C | 67% | 1018.4 hPa | 0 mm | - | - | - |
| 1777607624 | 6.11° C | 65% | 1018.2 hPa | 0 mm | - | - | - |
| 1777606721 | 7.22° C | 63% | 1018 hPa | 0 mm | - | - | - |
| 1777605818 | 7.78° C | 62% | 1017.9 hPa | 0 mm | - | - | - |
| 1777604915 | 7.78° C | 63% | 1017.7 hPa | 0 mm | - | - | - |
* Rain since midnight (hover to see other rain measurements)
** Current wind speed in m/s (hover to see current wind gust speed)